Terminal Aerodrome Forecast
Issued by NWS Jackson, MS

Current Version | Previous Version | Text Only | Print | Product List | Glossary On
Versions: 1 2 3 4 5 6 7 8 9 10 11 12 13 14
000
FTUS44 KJAN 222300
TAFGWO
TAF
KGWO 222330Z 2300/2324 15008KT 6SM BR BKN009
     FM230400 20006KT 4SM BR OVC007
     FM230700 28002KT 3SM BR OVC005
     FM231400 05004KT 2SM BR VCSH OVC007
     FM231700 04006KT 4SM BR VCSH OVC015
     FM232000 03005KT 2SM -RA BR OVC010=

USA.gov is the U.S. government's official web portal to all federal, state and local government web resources and services.